Time;durP1;ratioP1;P1;durP2;ratioP2;P2;SDS_P1;SDS_P2;PMS_P1;PMS_P2;Temp;Humidity;BMP_temperature;BMP_pressure;BME280_temperature;BME280_humidity;BME280_pressure;Samples;Min_cycle;Max_cycle;Signal;HPM_P1;HPM_P2
2022/12/16 00:00:25;;;;;;;0.20;0.20;;;6.30;99.90;;;;;;5063055;28;20120;-76
2022/12/16 00:02:51;;;;;;;0.10;0.10;;;6.20;99.90;;;;;;5052945;28;20082;-76
2022/12/16 00:05:18;;;;;;;0.10;0.10;;;6.20;99.90;;;;;;5063758;28;20076;-77
2022/12/16 00:07:45;;;;;;;0.10;0.10;;;6.10;99.90;;;;;;5068405;28;20024;-76
2022/12/16 00:10:11;;;;;;;0.10;0.10;;;6.10;99.90;;;;;;5064978;28;20032;-76
2022/12/16 00:12:37;;;;;;;0.10;0.10;;;6.00;99.90;;;;;;5064953;28;20037;-76
2022/12/16 00:15:03;;;;;;;0.10;0.10;;;6.10;99.90;;;;;;5063569;28;20036;-76
2022/12/16 00:17:29;;;;;;;0.10;0.10;;;6.00;99.90;;;;;;5064830;28;20033;-76
2022/12/16 00:19:55;;;;;;;1.65;0.40;;;6.10;99.90;;;;;;5064524;28;20031;-76
2022/12/16 00:22:21;;;;;;;3.33;1.20;;;6.20;99.90;;;;;;5066107;28;20029;-76
2022/12/16 00:24:47;;;;;;;0.10;0.10;;;6.10;99.90;;;;;;5065936;28;20028;-77
2022/12/16 00:27:12;;;;;;;0.10;0.10;;;6.10;99.90;;;;;;5064609;28;20040;-77
2022/12/16 00:29:38;;;;;;;0.10;0.10;;;6.20;99.90;;;;;;5064335;28;20032;-77
2022/12/16 00:32:05;;;;;;;0.10;0.10;;;6.20;99.90;;;;;;5064880;28;20066;-76
2022/12/16 00:34:32;;;;;;;0.90;0.88;;;6.20;99.90;;;;;;5062879;28;20032;-76
2022/12/16 00:36:58;;;;;;;0.40;0.40;;;6.30;99.90;;;;;;5060413;28;20029;-76
2022/12/16 00:39:23;;;;;;;0.13;0.13;;;6.20;99.90;;;;;;5064992;28;20070;-76
2022/12/16 00:41:49;;;;;;;0.20;0.20;;;6.20;99.90;;;;;;5057726;28;20029;-77
2022/12/16 00:44:16;;;;;;;0.17;0.17;;;6.10;99.90;;;;;;5065039;28;20032;-77
2022/12/16 00:46:41;;;;;;;0.10;0.10;;;6.10;99.90;;;;;;5064390;28;20032;-77
2022/12/16 00:49:07;;;;;;;0.52;0.47;;;6.10;99.90;;;;;;5062738;28;20396;-77
2022/12/16 00:51:33;;;;;;;0.20;0.20;;;6.10;99.90;;;;;;5063087;28;20125;-77
2022/12/16 00:53:58;;;;;;;0.40;0.40;;;6.10;99.90;;;;;;5058646;28;20854;-77
2022/12/16 00:56:24;;;;;;;0.10;0.10;;;6.10;99.90;;;;;;5064147;28;20024;-77
2022/12/16 00:58:50;;;;;;;0.10;0.10;;;6.20;99.90;;;;;;5062379;28;20367;-76
2022/12/16 01:01:16;;;;;;;0.03;0.03;;;6.10;99.90;;;;;;5065785;28;20028;-76
2022/12/16 01:03:41;;;;;;;2.90;0.65;;;6.10;99.90;;;;;;5064017;28;20029;-76
2022/12/16 01:06:16;;;;;;;0.10;0.10;;;6.10;99.90;;;;;;5055904;28;20079;-77
2022/12/16 01:08:47;;;;;;;0.30;0.30;;;6.10;99.90;;;;;;5062797;28;20159;-76
2022/12/16 01:11:14;;;;;;;0.15;0.15;;;6.00;99.90;;;;;;5063118;28;20024;-76
2022/12/16 01:13:39;;;;;;;0.13;0.13;;;6.00;99.90;;;;;;5060606;28;20241;-76
2022/12/16 01:16:05;;;;;;;0.45;0.45;;;6.10;99.90;;;;;;5062460;28;20032;-76
2022/12/16 01:18:31;;;;;;;0.30;0.30;;;6.00;99.90;;;;;;5064203;28;20844;-76
2022/12/16 01:21:05;;;;;;;0.10;0.10;;;6.00;99.90;;;;;;5063886;28;20028;-75
2022/12/16 01:23:31;;;;;;;0.10;0.10;;;5.90;99.90;;;;;;5064429;28;20078;-76
2022/12/16 01:25:59;;;;;;;0.10;0.10;;;5.90;99.90;;;;;;5063582;28;20028;-76
2022/12/16 01:28:25;;;;;;;0.10;0.10;;;5.90;99.90;;;;;;5064058;28;20827;-76
2022/12/16 01:31:00;;;;;;;0.10;0.10;;;5.80;99.90;;;;;;5063400;28;20029;-76
2022/12/16 01:33:30;;;;;;;0.25;0.25;;;5.80;99.90;;;;;;5061843;28;20032;-76
2022/12/16 01:36:05;;;;;;;0.10;0.10;;;5.70;99.90;;;;;;5064161;28;20694;-76
2022/12/16 01:38:32;;;;;;;0.10;0.10;;;5.70;99.90;;;;;;5062753;28;20028;-76
2022/12/16 01:40:58;;;;;;;0.10;0.10;;;5.70;99.90;;;;;;5060542;28;20021;-76
2022/12/16 01:43:27;;;;;;;0.10;0.10;;;5.70;99.90;;;;;;5063249;28;20547;-76
2022/12/16 01:46:01;;;;;;;0.30;0.30;;;5.70;99.90;;;;;;5062138;28;20081;-77
2022/12/16 01:48:39;;;;;;;0.57;0.57;;;5.70;99.90;;;;;;5059720;28;20032;-76
2022/12/16 01:51:35;;;;;;;0.10;0.10;;;5.70;99.90;;;;;;5060807;28;20032;-77
2022/12/16 01:54:05;;;;;;;0.10;0.10;;;5.70;99.90;;;;;;5062602;28;20101;-77
2022/12/16 01:56:32;;;;;;;0.10;0.10;;;5.70;99.90;;;;;;5062339;28;20040;-77
2022/12/16 01:59:00;;;;;;;0.20;0.20;;;5.70;99.90;;;;;;5060331;28;20097;-77
2022/12/16 02:01:26;;;;;;;0.15;0.15;;;5.70;99.90;;;;;;5059102;28;20527;-77
2022/12/16 02:03:55;;;;;;;0.15;0.15;;;5.80;99.90;;;;;;5063262;28;20050;-77
2022/12/16 02:06:21;;;;;;;2.45;1.08;;;5.70;99.90;;;;;;5062570;28;20476;-77
2022/12/16 02:08:54;;;;;;;0.10;0.10;;;5.80;99.90;;;;;;5062583;28;20107;-78
2022/12/16 02:11:37;;;;;;;0.10;0.10;;;5.70;99.90;;;;;;5061804;28;20470;-77
2022/12/16 02:14:13;;;;;;;0.10;0.10;;;5.70;99.90;;;;;;5062417;28;20028;-77
2022/12/16 02:16:51;;;;;;;0.40;0.40;;;5.60;99.90;;;;;;5076846;28;20059;-77
2022/12/16 02:19:55;;;;;;;0.10;0.10;;;5.60;99.90;;;;;;5061406;28;20050;-77
2022/12/16 02:22:39;;;;;;;0.13;0.13;;;5.60;99.90;;;;;;5064418;28;20036;-77
2022/12/16 02:25:42;;;;;;;0.32;0.32;;;5.50;99.90;;;;;;5061582;28;20025;-77
2022/12/16 02:28:17;;;;;;;0.80;0.57;;;5.40;99.90;;;;;;5061412;28;20642;-77
2022/12/16 02:31:16;;;;;;;0.30;0.30;;;5.40;99.90;;;;;;5061988;28;20385;-77
2022/12/16 02:34:09;;;;;;;0.30;0.30;;;5.30;99.90;;;;;;5053041;28;20060;-78
2022/12/16 02:36:48;;;;;;;0.38;0.30;;;5.40;99.90;;;;;;5062955;28;20032;-78
2022/12/16 02:39:21;;;;;;;0.20;0.20;;;5.40;99.90;;;;;;5063138;28;20025;-77
2022/12/16 02:41:53;;;;;;;0.10;0.10;;;5.40;99.90;;;;;;5063233;28;20025;-79
2022/12/16 02:44:20;;;;;;;0.10;0.10;;;5.30;99.90;;;;;;5060903;28;20078;-78
2022/12/16 02:46:54;;;;;;;0.10;0.10;;;5.40;99.90;;;;;;5063189;28;20029;-80
2022/12/16 02:49:22;;;;;;;1.00;0.40;;;5.20;99.90;;;;;;5061759;28;20037;-78
2022/12/16 02:51:48;;;;;;;0.10;0.10;;;5.30;99.90;;;;;;5052987;28;20033;-78
2022/12/16 02:54:16;;;;;;;0.10;0.10;;;5.30;99.90;;;;;;5062641;28;20052;-78
2022/12/16 02:57:12;;;;;;;0.35;0.35;;;5.30;99.90;;;;;;5063097;28;20051;-78
2022/12/16 03:00:03;;;;;;;0.10;0.10;;;5.30;99.90;;;;;;5060150;28;20049;-77
2022/12/16 03:02:51;;;;;;;0.10;0.10;;;5.20;99.90;;;;;;5061198;28;20769;-77
2022/12/16 03:05:31;;;;;;;0.10;0.10;;;5.20;99.90;;;;;;5062881;28;20083;-76
2022/12/16 03:08:02;;;;;;;0.20;0.20;;;5.20;99.90;;;;;;5061927;28;20042;-77
2022/12/16 03:10:34;;;;;;;0.20;0.20;;;5.20;99.90;;;;;;5061890;28;20059;-76
2022/12/16 03:13:01;;;;;;;0.10;0.10;;;5.20;99.90;;;;;;5062428;28;20032;-77
2022/12/16 03:15:32;;;;;;;0.10;0.10;;;5.20;99.90;;;;;;5061608;28;20020;-77
2022/12/16 03:17:59;;;;;;;0.40;0.40;;;5.10;99.90;;;;;;5061149;28;20677;-78
2022/12/16 03:20:57;;;;;;;0.10;0.10;;;5.20;99.90;;;;;;5061940;28;20900;-78
2022/12/16 03:23:44;;;;;;;1.17;1.17;;;5.20;99.90;;;;;;5047086;28;20093;-79
2022/12/16 03:26:19;;;;;;;0.50;0.50;;;5.20;99.90;;;;;;5060960;28;20032;-79
2022/12/16 03:28:55;;;;;;;0.10;0.10;;;5.10;99.90;;;;;;5065211;28;20041;-77
2022/12/16 03:31:30;;;;;;;0.10;0.10;;;5.10;99.90;;;;;;5063866;28;20102;-76
2022/12/16 03:34:15;;;;;;;0.20;0.20;;;5.00;99.90;;;;;;5064928;28;20033;-77
2022/12/16 03:36:46;;;;;;;0.20;0.20;;;5.00;99.90;;;;;;5055446;28;20025;-76
2022/12/16 03:39:14;;;;;;;0.25;0.25;;;5.00;99.90;;;;;;5065624;28;20029;-77
2022/12/16 03:41:42;;;;;;;0.10;0.10;;;4.90;99.90;;;;;;5064587;28;20227;-77
2022/12/16 03:44:09;;;;;;;0.20;0.20;;;5.00;99.90;;;;;;5064858;28;20040;-76
2022/12/16 03:46:35;;;;;;;0.10;0.10;;;4.90;99.90;;;;;;5065872;28;20031;-77
2022/12/16 03:49:00;;;;;;;0.50;0.50;;;4.80;99.90;;;;;;5065602;28;20032;-77
2022/12/16 03:51:26;;;;;;;0.10;0.10;;;4.80;99.90;;;;;;5064471;28;20027;-77
2022/12/16 03:53:52;;;;;;;0.10;0.10;;;4.80;99.90;;;;;;5060929;28;20056;-78
2022/12/16 03:56:18;;;;;;;0.30;0.30;;;4.80;99.90;;;;;;5064967;28;20033;-77
2022/12/16 03:58:43;;;;;;;0.63;0.63;;;4.80;99.90;;;;;;5063421;28;20051;-76
2022/12/16 04:01:09;;;;;;;0.10;0.10;;;4.80;99.90;;;;;;5059765;28;20028;-77
2022/12/16 04:03:36;;;;;;;0.20;0.20;;;4.80;99.90;;;;;;5060294;28;20167;-77
2022/12/16 04:06:02;;;;;;;;;;;4.70;99.90;;;;;;5065612;28;20633;-77
2022/12/16 04:08:28;;;;;;;0.20;0.20;;;4.70;99.90;;;;;;5065606;28;20329;-78
2022/12/16 04:25:14;;;;;;;0.20;0.20;;;4.70;99.90;;;;;;5066391;28;20115;-78
2022/12/16 04:27:45;;;;;;;0.13;0.13;;;4.60;99.90;;;;;;5064420;28;20090;-77
2022/12/16 04:30:18;;;;;;;0.95;0.95;;;4.60;99.90;;;;;;5064590;28;20055;-77
